sensor_id;sensor_type;location;lat;lon;timestamp;temperature;humidity
68867;SHT30;56451;44.804;20.476;2022-07-18T00:01:57;24.32;30.29
68867;SHT30;56451;44.804;20.476;2022-07-18T00:04:23;24.37;30.36
68867;SHT30;56451;44.804;20.476;2022-07-18T00:06:49;24.34;30.18
68867;SHT30;56451;44.804;20.476;2022-07-18T00:09:15;24.31;30.29
68867;SHT30;56451;44.804;20.476;2022-07-18T00:11:41;24.28;30.41
68867;SHT30;56451;44.804;20.476;2022-07-18T00:14:06;24.27;30.22
68867;SHT30;56451;44.804;20.476;2022-07-18T00:16:32;24.31;30.35
68867;SHT30;56451;44.804;20.476;2022-07-18T00:18:58;24.27;30.42
68867;SHT30;56451;44.804;20.476;2022-07-18T00:21:25;24.25;30.18
68867;SHT30;56451;44.804;20.476;2022-07-18T00:23:51;24.27;30.59
68867;SHT30;56451;44.804;20.476;2022-07-18T00:26:18;24.29;30.51
68867;SHT30;56451;44.804;20.476;2022-07-18T00:28:44;24.28;30.38
68867;SHT30;56451;44.804;20.476;2022-07-18T00:31:10;24.28;30.30
68867;SHT30;56451;44.804;20.476;2022-07-18T00:33:36;24.25;30.36
68867;SHT30;56451;44.804;20.476;2022-07-18T00:36:02;24.29;30.51
68867;SHT30;56451;44.804;20.476;2022-07-18T00:38:28;24.27;30.36
68867;SHT30;56451;44.804;20.476;2022-07-18T00:40:54;24.22;30.55
68867;SHT30;56451;44.804;20.476;2022-07-18T00:43:19;24.25;30.39
68867;SHT30;56451;44.804;20.476;2022-07-18T00:45:47;24.22;30.46
68867;SHT30;56451;44.804;20.476;2022-07-18T00:48:14;24.24;30.51
68867;SHT30;56451;44.804;20.476;2022-07-18T00:50:41;24.20;30.57
68867;SHT30;56451;44.804;20.476;2022-07-18T00:53:07;24.20;30.58
68867;SHT30;56451;44.804;20.476;2022-07-18T00:55:43;24.22;30.46
68867;SHT30;56451;44.804;20.476;2022-07-18T00:58:10;24.18;30.40
68867;SHT30;56451;44.804;20.476;2022-07-18T01:00:36;24.14;30.49
68867;SHT30;56451;44.804;20.476;2022-07-18T01:03:21;24.17;30.31
68867;SHT30;56451;44.804;20.476;2022-07-18T01:05:47;24.16;30.35
68867;SHT30;56451;44.804;20.476;2022-07-18T01:08:14;24.16;30.34
68867;SHT30;56451;44.804;20.476;2022-07-18T01:10:40;24.17;30.21
68867;SHT30;56451;44.804;20.476;2022-07-18T01:13:06;24.14;30.38
68867;SHT30;56451;44.804;20.476;2022-07-18T01:15:32;24.14;30.34
68867;SHT30;56451;44.804;20.476;2022-07-18T01:17:58;24.17;30.52
68867;SHT30;56451;44.804;20.476;2022-07-18T01:20:28;24.16;30.70
68867;SHT30;56451;44.804;20.476;2022-07-18T01:22:54;24.14;30.78
68867;SHT30;56451;44.804;20.476;2022-07-18T01:25:19;24.14;30.93
68867;SHT30;56451;44.804;20.476;2022-07-18T01:27:45;24.14;30.58
68867;SHT30;56451;44.804;20.476;2022-07-18T01:30:11;24.11;30.61
68867;SHT30;56451;44.804;20.476;2022-07-18T01:32:37;24.08;30.30
68867;SHT30;56451;44.804;20.476;2022-07-18T01:35:04;24.10;30.24
68867;SHT30;56451;44.804;20.476;2022-07-18T01:37:30;24.13;30.99
68867;SHT30;56451;44.804;20.476;2022-07-18T01:39:56;24.14;34.01
68867;SHT30;56451;44.804;20.476;2022-07-18T01:42:22;24.07;34.97
68867;SHT30;56451;44.804;20.476;2022-07-18T01:44:48;24.06;35.63
68867;SHT30;56451;44.804;20.476;2022-07-18T01:47:14;24.00;36.44
68867;SHT30;56451;44.804;20.476;2022-07-18T01:49:40;23.99;36.53
68867;SHT30;56451;44.804;20.476;2022-07-18T01:52:07;23.94;36.52
68867;SHT30;56451;44.804;20.476;2022-07-18T01:54:35;23.90;36.75
68867;SHT30;56451;44.804;20.476;2022-07-18T01:57:04;23.86;36.98
68867;SHT30;56451;44.804;20.476;2022-07-18T01:59:30;23.83;37.24
68867;SHT30;56451;44.804;20.476;2022-07-18T02:01:56;23.79;37.54
68867;SHT30;56451;44.804;20.476;2022-07-18T02:04:22;23.74;37.56
68867;SHT30;56451;44.804;20.476;2022-07-18T02:07:07;23.67;37.95
68867;SHT30;56451;44.804;20.476;2022-07-18T02:09:33;23.66;37.98
68867;SHT30;56451;44.804;20.476;2022-07-18T02:11:59;23.60;37.71
68867;SHT30;56451;44.804;20.476;2022-07-18T02:14:24;23.56;37.86
68867;SHT30;56451;44.804;20.476;2022-07-18T02:16:50;23.53;37.01
68867;SHT30;56451;44.804;20.476;2022-07-18T02:19:16;23.48;36.61
68867;SHT30;56451;44.804;20.476;2022-07-18T02:21:42;23.42;36.55
68867;SHT30;56451;44.804;20.476;2022-07-18T02:24:07;23.48;35.94
68867;SHT30;56451;44.804;20.476;2022-07-18T02:26:33;23.45;36.29
68867;SHT30;56451;44.804;20.476;2022-07-18T02:29:00;23.37;36.54
68867;SHT30;56451;44.804;20.476;2022-07-18T02:31:26;23.37;36.44
68867;SHT30;56451;44.804;20.476;2022-07-18T02:33:53;23.33;35.89
68867;SHT30;56451;44.804;20.476;2022-07-18T02:36:18;23.21;36.22
68867;SHT30;56451;44.804;20.476;2022-07-18T02:38:44;23.16;36.33
68867;SHT30;56451;44.804;20.476;2022-07-18T02:41:10;23.05;36.40
68867;SHT30;56451;44.804;20.476;2022-07-18T02:43:36;23.04;36.40
68867;SHT30;56451;44.804;20.476;2022-07-18T02:46:02;22.95;36.59
68867;SHT30;56451;44.804;20.476;2022-07-18T02:48:28;22.83;36.66
68867;SHT30;56451;44.804;20.476;2022-07-18T02:50:54;22.77;36.75
68867;SHT30;56451;44.804;20.476;2022-07-18T02:53:21;22.70;37.29
68867;SHT30;56451;44.804;20.476;2022-07-18T02:55:51;22.68;37.59
68867;SHT30;56451;44.804;20.476;2022-07-18T02:58:17;22.66;38.07
68867;SHT30;56451;44.804;20.476;2022-07-18T03:00:43;22.54;38.38
68867;SHT30;56451;44.804;20.476;2022-07-18T03:03:09;22.49;39.07
68867;SHT30;56451;44.804;20.476;2022-07-18T03:05:35;22.42;39.59
68867;SHT30;56451;44.804;20.476;2022-07-18T03:08:01;22.36;39.43
68867;SHT30;56451;44.804;20.476;2022-07-18T03:10:27;22.26;39.80
68867;SHT30;56451;44.804;20.476;2022-07-18T03:12:53;22.16;39.93
68867;SHT30;56451;44.804;20.476;2022-07-18T03:15:19;22.05;40.17
68867;SHT30;56451;44.804;20.476;2022-07-18T03:17:45;21.96;40.39
68867;SHT30;56451;44.804;20.476;2022-07-18T03:20:11;21.95;40.60
68867;SHT30;56451;44.804;20.476;2022-07-18T03:22:37;21.98;40.65
68867;SHT30;56451;44.804;20.476;2022-07-18T03:25:03;21.95;40.85
68867;SHT30;56451;44.804;20.476;2022-07-18T03:27:29;21.95;40.77
68867;SHT30;56451;44.804;20.476;2022-07-18T03:29:55;21.91;40.85
68867;SHT30;56451;44.804;20.476;2022-07-18T03:32:21;21.89;40.82
68867;SHT30;56451;44.804;20.476;2022-07-18T03:34:47;21.87;41.22
68867;SHT30;56451;44.804;20.476;2022-07-18T03:37:12;21.92;41.45
68867;SHT30;56451;44.804;20.476;2022-07-18T03:39:38;21.85;41.66
68867;SHT30;56451;44.804;20.476;2022-07-18T03:42:04;21.79;42.06
68867;SHT30;56451;44.804;20.476;2022-07-18T03:44:30;21.78;42.38
68867;SHT30;56451;44.804;20.476;2022-07-18T03:46:55;21.75;42.04
68867;SHT30;56451;44.804;20.476;2022-07-18T03:49:21;21.71;42.45
68867;SHT30;56451;44.804;20.476;2022-07-18T03:51:47;21.71;42.70
68867;SHT30;56451;44.804;20.476;2022-07-18T03:54:13;21.69;42.70
68867;SHT30;56451;44.804;20.476;2022-07-18T03:56:39;21.64;42.94
68867;SHT30;56451;44.804;20.476;2022-07-18T03:59:05;21.61;43.06
68867;SHT30;56451;44.804;20.476;2022-07-18T04:01:30;21.61;42.88
68867;SHT30;56451;44.804;20.476;2022-07-18T04:03:56;21.61;42.55
68867;SHT30;56451;44.804;20.476;2022-07-18T04:06:22;21.60;42.20
68867;SHT30;56451;44.804;20.476;2022-07-18T04:08:48;21.60;42.49
68867;SHT30;56451;44.804;20.476;2022-07-18T04:11:13;21.60;42.40
68867;SHT30;56451;44.804;20.476;2022-07-18T04:13:39;21.60;42.45
68867;SHT30;56451;44.804;20.476;2022-07-18T04:16:05;21.62;42.37
68867;SHT30;56451;44.804;20.476;2022-07-18T04:18:31;21.62;42.23
68867;SHT30;56451;44.804;20.476;2022-07-18T04:20:57;21.71;41.91
68867;SHT30;56451;44.804;20.476;2022-07-18T04:23:23;21.75;41.82
68867;SHT30;56451;44.804;20.476;2022-07-18T04:25:48;21.82;41.80
68867;SHT30;56451;44.804;20.476;2022-07-18T04:28:14;21.84;41.76
68867;SHT30;56451;44.804;20.476;2022-07-18T04:30:42;21.88;41.60
68867;SHT30;56451;44.804;20.476;2022-07-18T04:33:09;21.95;41.24
68867;SHT30;56451;44.804;20.476;2022-07-18T04:35:36;22.01;41.12
68867;SHT30;56451;44.804;20.476;2022-07-18T04:38:04;22.05;40.53
68867;SHT30;56451;44.804;20.476;2022-07-18T04:40:30;22.12;39.37
68867;SHT30;56451;44.804;20.476;2022-07-18T04:42:56;22.17;38.37
68867;SHT30;56451;44.804;20.476;2022-07-18T04:45:22;22.26;39.03
68867;SHT30;56451;44.804;20.476;2022-07-18T04:47:50;22.30;37.62
68867;SHT30;56451;44.804;20.476;2022-07-18T04:50:16;22.32;36.70
68867;SHT30;56451;44.804;20.476;2022-07-18T04:52:44;22.36;37.44
68867;SHT30;56451;44.804;20.476;2022-07-18T04:55:12;22.39;38.10
68867;SHT30;56451;44.804;20.476;2022-07-18T04:57:38;22.42;38.34
68867;SHT30;56451;44.804;20.476;2022-07-18T05:00:13;22.50;37.96
68867;SHT30;56451;44.804;20.476;2022-07-18T05:02:43;22.43;38.17
68867;SHT30;56451;44.804;20.476;2022-07-18T05:05:11;22.52;38.02
68867;SHT30;56451;44.804;20.476;2022-07-18T05:07:38;22.50;38.46
68867;SHT30;56451;44.804;20.476;2022-07-18T05:10:05;22.53;38.05
68867;SHT30;56451;44.804;20.476;2022-07-18T05:12:37;22.60;37.61
68867;SHT30;56451;44.804;20.476;2022-07-18T05:15:07;22.66;36.96
68867;SHT30;56451;44.804;20.476;2022-07-18T05:17:34;22.67;36.86
68867;SHT30;56451;44.804;20.476;2022-07-18T05:19:59;22.71;36.44
68867;SHT30;56451;44.804;20.476;2022-07-18T05:22:25;22.77;36.30
68867;SHT30;56451;44.804;20.476;2022-07-18T05:24:51;22.86;36.58
68867;SHT30;56451;44.804;20.476;2022-07-18T05:27:17;22.94;36.56
68867;SHT30;56451;44.804;20.476;2022-07-18T05:29:43;22.94;36.45
68867;SHT30;56451;44.804;20.476;2022-07-18T05:32:09;22.93;37.15
68867;SHT30;56451;44.804;20.476;2022-07-18T05:34:36;22.90;37.36
68867;SHT30;56451;44.804;20.476;2022-07-18T05:37:02;22.81;37.60
68867;SHT30;56451;44.804;20.476;2022-07-18T05:39:28;22.78;38.13
68867;SHT30;56451;44.804;20.476;2022-07-18T05:41:54;22.86;37.43
68867;SHT30;56451;44.804;20.476;2022-07-18T05:44:19;22.87;37.20
68867;SHT30;56451;44.804;20.476;2022-07-18T05:46:46;22.88;37.24
68867;SHT30;56451;44.804;20.476;2022-07-18T05:49:15;22.84;36.80
68867;SHT30;56451;44.804;20.476;2022-07-18T05:51:41;22.87;36.42
68867;SHT30;56451;44.804;20.476;2022-07-18T05:54:07;22.93;36.22
68867;SHT30;56451;44.804;20.476;2022-07-18T05:56:34;22.93;36.18
68867;SHT30;56451;44.804;20.476;2022-07-18T05:59:00;22.87;37.37
68867;SHT30;56451;44.804;20.476;2022-07-18T06:01:26;22.83;37.39
68867;SHT30;56451;44.804;20.476;2022-07-18T06:03:51;22.74;37.58
68867;SHT30;56451;44.804;20.476;2022-07-18T06:06:17;22.74;38.90
68867;SHT30;56451;44.804;20.476;2022-07-18T06:08:46;22.66;38.97
68867;SHT30;56451;44.804;20.476;2022-07-18T06:11:12;22.64;39.41
68867;SHT30;56451;44.804;20.476;2022-07-18T06:13:39;22.74;39.82
68867;SHT30;56451;44.804;20.476;2022-07-18T06:16:06;22.74;40.26
68867;SHT30;56451;44.804;20.476;2022-07-18T06:18:33;22.81;40.24
68867;SHT30;56451;44.804;20.476;2022-07-18T06:21:01;22.83;37.73
68867;SHT30;56451;44.804;20.476;2022-07-18T06:23:27;22.87;38.05
68867;SHT30;56451;44.804;20.476;2022-07-18T06:25:54;22.91;38.96
68867;SHT30;56451;44.804;20.476;2022-07-18T06:28:20;22.91;39.40
68867;SHT30;56451;44.804;20.476;2022-07-18T06:30:46;22.97;37.12
68867;SHT30;56451;44.804;20.476;2022-07-18T06:33:12;22.97;36.60
68867;SHT30;56451;44.804;20.476;2022-07-18T06:35:39;23.01;37.25
68867;SHT30;56451;44.804;20.476;2022-07-18T06:38:06;23.07;36.99
68867;SHT30;56451;44.804;20.476;2022-07-18T06:40:32;23.15;36.80
68867;SHT30;56451;44.804;20.476;2022-07-18T06:42:58;23.22;36.96
68867;SHT30;56451;44.804;20.476;2022-07-18T06:45:24;23.28;35.70
68867;SHT30;56451;44.804;20.476;2022-07-18T06:47:50;23.35;35.10
68867;SHT30;56451;44.804;20.476;2022-07-18T06:50:16;23.45;34.96
68867;SHT30;56451;44.804;20.476;2022-07-18T06:52:44;23.39;34.72
68867;SHT30;56451;44.804;20.476;2022-07-18T06:55:11;23.42;34.55
68867;SHT30;56451;44.804;20.476;2022-07-18T06:57:38;23.38;34.25
68867;SHT30;56451;44.804;20.476;2022-07-18T07:00:05;23.37;34.85
68867;SHT30;56451;44.804;20.476;2022-07-18T07:02:31;23.41;35.11
68867;SHT30;56451;44.804;20.476;2022-07-18T07:04:57;23.46;35.85
68867;SHT30;56451;44.804;20.476;2022-07-18T07:07:23;23.46;35.44
68867;SHT30;56451;44.804;20.476;2022-07-18T07:09:48;23.43;33.47
68867;SHT30;56451;44.804;20.476;2022-07-18T07:12:14;23.43;33.59
68867;SHT30;56451;44.804;20.476;2022-07-18T07:14:40;23.42;34.19
68867;SHT30;56451;44.804;20.476;2022-07-18T07:17:06;23.43;35.04
68867;SHT30;56451;44.804;20.476;2022-07-18T07:19:31;23.51;34.99
68867;SHT30;56451;44.804;20.476;2022-07-18T07:21:58;23.56;34.65
68867;SHT30;56451;44.804;20.476;2022-07-18T07:24:23;23.66;34.35
68867;SHT30;56451;44.804;20.476;2022-07-18T07:26:49;23.74;34.10
68867;SHT30;56451;44.804;20.476;2022-07-18T07:29:15;23.79;33.70
68867;SHT30;56451;44.804;20.476;2022-07-18T07:31:41;23.84;32.89
68867;SHT30;56451;44.804;20.476;2022-07-18T07:34:09;23.89;34.10
68867;SHT30;56451;44.804;20.476;2022-07-18T07:36:35;23.92;35.03
68867;SHT30;56451;44.804;20.476;2022-07-18T07:39:02;23.97;36.27
68867;SHT30;56451;44.804;20.476;2022-07-18T07:41:27;24.04;36.96
68867;SHT30;56451;44.804;20.476;2022-07-18T07:43:53;24.08;36.36
68867;SHT30;56451;44.804;20.476;2022-07-18T07:46:19;24.14;35.93
68867;SHT30;56451;44.804;20.476;2022-07-18T07:48:45;24.25;35.90
68867;SHT30;56451;44.804;20.476;2022-07-18T07:51:13;24.28;35.27
68867;SHT30;56451;44.804;20.476;2022-07-18T07:53:39;24.34;34.75
68867;SHT30;56451;44.804;20.476;2022-07-18T07:56:05;24.39;33.99
68867;SHT30;56451;44.804;20.476;2022-07-18T07:58:31;24.42;33.75
68867;SHT30;56451;44.804;20.476;2022-07-18T08:00:57;24.44;34.38
68867;SHT30;56451;44.804;20.476;2022-07-18T08:03:22;24.44;34.91
68867;SHT30;56451;44.804;20.476;2022-07-18T08:05:49;24.55;35.55
68867;SHT30;56451;44.804;20.476;2022-07-18T08:08:16;24.57;35.47
68867;SHT30;56451;44.804;20.476;2022-07-18T08:10:43;24.57;35.65
68867;SHT30;56451;44.804;20.476;2022-07-18T08:13:10;24.61;35.65
68867;SHT30;56451;44.804;20.476;2022-07-18T08:15:37;24.65;34.97
68867;SHT30;56451;44.804;20.476;2022-07-18T08:18:03;24.71;34.35
68867;SHT30;56451;44.804;20.476;2022-07-18T08:20:29;24.79;34.38
68867;SHT30;56451;44.804;20.476;2022-07-18T08:23:01;24.85;34.26
68867;SHT30;56451;44.804;20.476;2022-07-18T08:25:31;24.89;34.25
68867;SHT30;56451;44.804;20.476;2022-07-18T08:27:58;24.96;32.65
68867;SHT30;56451;44.804;20.476;2022-07-18T08:30:24;24.95;32.21
68867;SHT30;56451;44.804;20.476;2022-07-18T08:32:50;24.95;33.03
68867;SHT30;56451;44.804;20.476;2022-07-18T08:35:16;24.99;33.60
68867;SHT30;56451;44.804;20.476;2022-07-18T08:37:42;25.06;33.91
68867;SHT30;56451;44.804;20.476;2022-07-18T08:40:08;25.15;33.63
68867;SHT30;56451;44.804;20.476;2022-07-18T08:42:34;25.23;33.51
68867;SHT30;56451;44.804;20.476;2022-07-18T08:45:02;25.31;33.07
68867;SHT30;56451;44.804;20.476;2022-07-18T08:47:28;25.34;32.55
68867;SHT30;56451;44.804;20.476;2022-07-18T08:49:55;25.35;32.54
68867;SHT30;56451;44.804;20.476;2022-07-18T08:52:21;25.37;32.21
68867;SHT30;56451;44.804;20.476;2022-07-18T08:54:47;25.41;31.88
68867;SHT30;56451;44.804;20.476;2022-07-18T08:57:16;25.43;32.64
68867;SHT30;56451;44.804;20.476;2022-07-18T08:59:43;25.50;32.80
68867;SHT30;56451;44.804;20.476;2022-07-18T09:02:09;25.58;33.14
68867;SHT30;56451;44.804;20.476;2022-07-18T09:07:01;25.72;32.50
68867;SHT30;56451;44.804;20.476;2022-07-18T09:09:29;25.80;32.48
68867;SHT30;56451;44.804;20.476;2022-07-18T09:12:01;25.91;31.65
68867;SHT30;56451;44.804;20.476;2022-07-18T09:14:43;25.98;31.62
68867;SHT30;56451;44.804;20.476;2022-07-18T09:17:27;26.06;31.07
68867;SHT30;56451;44.804;20.476;2022-07-18T09:22:23;26.25;30.18
68867;SHT30;56451;44.804;20.476;2022-07-18T09:35:22;26.26;30.47
68867;SHT30;56451;44.804;20.476;2022-07-18T09:38:08;26.30;31.12
68867;SHT30;56451;44.804;20.476;2022-07-18T09:40:40;26.39;30.45
68867;SHT30;56451;44.804;20.476;2022-07-18T09:43:08;26.46;28.96
68867;SHT30;56451;44.804;20.476;2022-07-18T09:45:45;26.49;27.99
68867;SHT30;56451;44.804;20.476;2022-07-18T09:48:15;26.47;28.11
68867;SHT30;56451;44.804;20.476;2022-07-18T09:50:52;26.50;28.19
68867;SHT30;56451;44.804;20.476;2022-07-18T09:53:31;26.50;29.41
68867;SHT30;56451;44.804;20.476;2022-07-18T09:56:08;26.51;28.51
68867;SHT30;56451;44.804;20.476;2022-07-18T09:58:40;26.57;27.83
68867;SHT30;56451;44.804;20.476;2022-07-18T10:01:07;26.61;27.36
68867;SHT30;56451;44.804;20.476;2022-07-18T10:03:34;26.61;27.72
68867;SHT30;56451;44.804;20.476;2022-07-18T10:06:01;26.61;27.72
68867;SHT30;56451;44.804;20.476;2022-07-18T10:08:30;26.67;27.74
68867;SHT30;56451;44.804;20.476;2022-07-18T10:10:57;26.71;27.03
68867;SHT30;56451;44.804;20.476;2022-07-18T10:13:26;26.76;27.32
68867;SHT30;56451;44.804;20.476;2022-07-18T10:15:53;26.80;27.26
68867;SHT30;56451;44.804;20.476;2022-07-18T10:18:24;26.81;27.51
68867;SHT30;56451;44.804;20.476;2022-07-18T10:31:24;26.91;26.90
68867;SHT30;56451;44.804;20.476;2022-07-18T10:33:51;26.94;27.26
68867;SHT30;56451;44.804;20.476;2022-07-18T10:36:20;26.99;27.95
68867;SHT30;56451;44.804;20.476;2022-07-18T10:39:07;27.07;28.02
68867;SHT30;56451;44.804;20.476;2022-07-18T11:00:06;27.62;27.42
68867;SHT30;56451;44.804;20.476;2022-07-18T11:02:40;27.62;27.53
68867;SHT30;56451;44.804;20.476;2022-07-18T11:18:31;27.77;27.26
68867;SHT30;56451;44.804;20.476;2022-07-18T11:20:57;27.87;27.23
68867;SHT30;56451;44.804;20.476;2022-07-18T11:23:26;27.93;27.76
68867;SHT30;56451;44.804;20.476;2022-07-18T11:25:58;28.00;27.69
68867;SHT30;56451;44.804;20.476;2022-07-18T11:28:25;28.07;27.25
68867;SHT30;56451;44.804;20.476;2022-07-18T11:31:07;28.11;28.10
68867;SHT30;56451;44.804;20.476;2022-07-18T11:33:36;28.21;27.81
68867;SHT30;56451;44.804;20.476;2022-07-18T11:36:10;28.29;28.11
68867;SHT30;56451;44.804;20.476;2022-07-18T11:38:46;28.35;27.59
68867;SHT30;56451;44.804;20.476;2022-07-18T11:41:14;28.32;27.23
68867;SHT30;56451;44.804;20.476;2022-07-18T11:43:40;28.32;27.76
68867;SHT30;56451;44.804;20.476;2022-07-18T11:46:07;28.29;28.18
68867;SHT30;56451;44.804;20.476;2022-07-18T11:48:35;28.32;27.92
68867;SHT30;56451;44.804;20.476;2022-07-18T11:51:02;28.40;28.01
68867;SHT30;56451;44.804;20.476;2022-07-18T11:53:28;28.44;27.98
68867;SHT30;56451;44.804;20.476;2022-07-18T11:55:56;28.55;27.98
68867;SHT30;56451;44.804;20.476;2022-07-18T11:58:22;28.56;27.13
68867;SHT30;56451;44.804;20.476;2022-07-18T12:00:48;28.52;27.27
68867;SHT30;56451;44.804;20.476;2022-07-18T12:03:17;28.49;27.49
68867;SHT30;56451;44.804;20.476;2022-07-18T12:05:45;28.42;27.00
68867;SHT30;56451;44.804;20.476;2022-07-18T12:08:39;28.42;27.16
68867;SHT30;56451;44.804;20.476;2022-07-18T12:11:08;28.38;27.19
68867;SHT30;56451;44.804;20.476;2022-07-18T12:13:58;28.38;27.93
68867;SHT30;56451;44.804;20.476;2022-07-18T12:19:14;28.31;27.99
68867;SHT30;56451;44.804;20.476;2022-07-18T12:21:40;28.27;28.17
68867;SHT30;56451;44.804;20.476;2022-07-18T12:32:26;28.41;28.06
68867;SHT30;56451;44.804;20.476;2022-07-18T12:35:02;28.55;28.18
68867;SHT30;56451;44.804;20.476;2022-07-18T12:37:29;28.62;27.33
68867;SHT30;56451;44.804;20.476;2022-07-18T12:40:00;28.69;26.43
68867;SHT30;56451;44.804;20.476;2022-07-18T12:42:36;28.73;26.33
68867;SHT30;56451;44.804;20.476;2022-07-18T12:45:03;28.71;25.59
68867;SHT30;56451;44.804;20.476;2022-07-18T12:47:30;28.65;26.20
68867;SHT30;56451;44.804;20.476;2022-07-18T12:49:55;28.62;26.49
68867;SHT30;56451;44.804;20.476;2022-07-18T12:52:22;28.62;26.96
68867;SHT30;56451;44.804;20.476;2022-07-18T12:54:48;28.66;27.05
68867;SHT30;56451;44.804;20.476;2022-07-18T12:57:15;28.78;27.25
68867;SHT30;56451;44.804;20.476;2022-07-18T12:59:41;28.82;27.16
68867;SHT30;56451;44.804;20.476;2022-07-18T13:02:07;28.84;27.59
68867;SHT30;56451;44.804;20.476;2022-07-18T13:04:33;28.90;27.27
68867;SHT30;56451;44.804;20.476;2022-07-18T13:06:58;28.88;27.29
68867;SHT30;56451;44.804;20.476;2022-07-18T13:09:24;28.83;26.62
68867;SHT30;56451;44.804;20.476;2022-07-18T13:11:50;28.80;26.87
68867;SHT30;56451;44.804;20.476;2022-07-18T13:14:17;28.80;27.22
68867;SHT30;56451;44.804;20.476;2022-07-18T13:16:46;28.83;27.18
68867;SHT30;56451;44.804;20.476;2022-07-18T13:19:14;28.88;27.41
68867;SHT30;56451;44.804;20.476;2022-07-18T13:21:41;28.96;27.66
68867;SHT30;56451;44.804;20.476;2022-07-18T13:24:07;29.07;27.90
68867;SHT30;56451;44.804;20.476;2022-07-18T13:26:33;29.19;26.65
68867;SHT30;56451;44.804;20.476;2022-07-18T13:28:59;29.23;26.42
68867;SHT30;56451;44.804;20.476;2022-07-18T13:31:24;29.30;27.01
68867;SHT30;56451;44.804;20.476;2022-07-18T13:33:50;29.35;27.00
68867;SHT30;56451;44.804;20.476;2022-07-18T13:36:17;29.37;27.26
68867;SHT30;56451;44.804;20.476;2022-07-18T13:38:43;29.44;26.56
68867;SHT30;56451;44.804;20.476;2022-07-18T13:41:09;29.51;26.61
68867;SHT30;56451;44.804;20.476;2022-07-18T13:43:36;29.55;26.86
68867;SHT30;56451;44.804;20.476;2022-07-18T13:46:08;29.61;26.31
68867;SHT30;56451;44.804;20.476;2022-07-18T13:48:34;29.55;26.56
68867;SHT30;56451;44.804;20.476;2022-07-18T13:51:00;29.43;26.84
68867;SHT30;56451;44.804;20.476;2022-07-18T13:53:27;29.34;27.11
68867;SHT30;56451;44.804;20.476;2022-07-18T13:55:53;29.37;27.15
68867;SHT30;56451;44.804;20.476;2022-07-18T13:58:19;29.31;26.58
68867;SHT30;56451;44.804;20.476;2022-07-18T14:00:45;29.23;26.95
68867;SHT30;56451;44.804;20.476;2022-07-18T14:03:10;29.21;27.05
68867;SHT30;56451;44.804;20.476;2022-07-18T14:05:37;29.24;27.01
68867;SHT30;56451;44.804;20.476;2022-07-18T14:08:04;29.24;26.60
68867;SHT30;56451;44.804;20.476;2022-07-18T14:10:30;29.31;27.01
68867;SHT30;56451;44.804;20.476;2022-07-18T14:12:56;29.37;26.88
68867;SHT30;56451;44.804;20.476;2022-07-18T14:15:21;29.47;27.20
68867;SHT30;56451;44.804;20.476;2022-07-18T14:17:47;29.59;26.54
68867;SHT30;56451;44.804;20.476;2022-07-18T14:20:13;29.71;26.12
68867;SHT30;56451;44.804;20.476;2022-07-18T14:22:40;29.86;26.30
68867;SHT30;56451;44.804;20.476;2022-07-18T14:25:07;29.93;25.65
68867;SHT30;56451;44.804;20.476;2022-07-18T14:27:34;29.96;25.41
68867;SHT30;56451;44.804;20.476;2022-07-18T14:30:02;30.02;25.21
68867;SHT30;56451;44.804;20.476;2022-07-18T14:32:28;29.98;25.47
68867;SHT30;56451;44.804;20.476;2022-07-18T14:34:54;29.85;25.84
68867;SHT30;56451;44.804;20.476;2022-07-18T14:37:20;29.85;25.82
68867;SHT30;56451;44.804;20.476;2022-07-18T14:39:46;29.88;25.53
68867;SHT30;56451;44.804;20.476;2022-07-18T14:42:12;29.89;25.97
68867;SHT30;56451;44.804;20.476;2022-07-18T14:44:38;29.99;26.17
68867;SHT30;56451;44.804;20.476;2022-07-18T14:47:05;30.12;25.71
68867;SHT30;56451;44.804;20.476;2022-07-18T14:49:30;30.19;26.05
68867;SHT30;56451;44.804;20.476;2022-07-18T14:51:57;30.36;25.50
68867;SHT30;56451;44.804;20.476;2022-07-18T14:54:23;30.47;25.38
68867;SHT30;56451;44.804;20.476;2022-07-18T14:56:49;30.48;24.83
68867;SHT30;56451;44.804;20.476;2022-07-18T14:59:15;30.50;24.94
68867;SHT30;56451;44.804;20.476;2022-07-18T15:01:41;30.53;24.88
68867;SHT30;56451;44.804;20.476;2022-07-18T15:04:06;30.59;24.88
68867;SHT30;56451;44.804;20.476;2022-07-18T15:06:32;30.57;24.34
68867;SHT30;56451;44.804;20.476;2022-07-18T15:08:58;30.54;25.05
68867;SHT30;56451;44.804;20.476;2022-07-18T15:11:24;30.59;24.79
68867;SHT30;56451;44.804;20.476;2022-07-18T15:13:51;30.63;24.47
68867;SHT30;56451;44.804;20.476;2022-07-18T15:16:17;30.73;24.55
68867;SHT30;56451;44.804;20.476;2022-07-18T15:18:43;30.73;24.43
68867;SHT30;56451;44.804;20.476;2022-07-18T15:21:09;30.68;24.32
68867;SHT30;56451;44.804;20.476;2022-07-18T15:23:35;30.59;24.28
68867;SHT30;56451;44.804;20.476;2022-07-18T15:26:00;30.54;24.57
68867;SHT30;56451;44.804;20.476;2022-07-18T15:28:26;30.61;24.75
68867;SHT30;56451;44.804;20.476;2022-07-18T15:30:52;30.59;25.27
68867;SHT30;56451;44.804;20.476;2022-07-18T15:33:18;30.64;25.52
68867;SHT30;56451;44.804;20.476;2022-07-18T15:35:47;30.67;25.06
68867;SHT30;56451;44.804;20.476;2022-07-18T15:38:13;30.63;25.15
68867;SHT30;56451;44.804;20.476;2022-07-18T15:40:39;30.64;25.07
68867;SHT30;56451;44.804;20.476;2022-07-18T15:43:05;30.61;25.01
68867;SHT30;56451;44.804;20.476;2022-07-18T15:45:31;30.59;25.44
68867;SHT30;56451;44.804;20.476;2022-07-18T15:47:57;30.57;25.05
68867;SHT30;56451;44.804;20.476;2022-07-18T15:50:23;30.48;25.06
68867;SHT30;56451;44.804;20.476;2022-07-18T15:52:49;30.39;25.30
68867;SHT30;56451;44.804;20.476;2022-07-18T15:55:18;30.30;25.54
68867;SHT30;56451;44.804;20.476;2022-07-18T15:57:44;30.27;25.56
68867;SHT30;56451;44.804;20.476;2022-07-18T16:00:10;30.29;25.45
68867;SHT30;56451;44.804;20.476;2022-07-18T16:02:40;30.37;25.52
68867;SHT30;56451;44.804;20.476;2022-07-18T16:05:07;30.40;26.18
68867;SHT30;56451;44.804;20.476;2022-07-18T16:07:33;30.46;26.20
68867;SHT30;56451;44.804;20.476;2022-07-18T16:09:59;30.50;25.39
68867;SHT30;56451;44.804;20.476;2022-07-18T16:12:25;30.60;24.44
68867;SHT30;56451;44.804;20.476;2022-07-18T16:14:51;30.54;24.42
68867;SHT30;56451;44.804;20.476;2022-07-18T16:17:19;30.50;24.92
68867;SHT30;56451;44.804;20.476;2022-07-18T16:19:44;30.53;25.88
68867;SHT30;56451;44.804;20.476;2022-07-18T16:22:10;30.54;25.07
68867;SHT30;56451;44.804;20.476;2022-07-18T16:24:36;30.64;23.71